createdAt,value
2022-09-12T00:01:05.814Z,7.93
2022-09-12T00:03:34.004Z,7.40
2022-09-12T00:06:02.177Z,7.57
2022-09-12T00:08:30.363Z,7.23
2022-09-12T00:10:58.500Z,8.03
2022-09-12T00:13:26.673Z,8.10
2022-09-12T00:15:54.893Z,8.07
2022-09-12T00:18:24.513Z,8.40
2022-09-12T00:20:52.659Z,9.00
2022-09-12T00:23:20.976Z,8.43
2022-09-12T00:25:50.014Z,9.03
2022-09-12T00:28:19.128Z,8.97
2022-09-12T00:30:48.270Z,7.73
2022-09-12T00:33:17.519Z,8.73
2022-09-12T00:35:47.693Z,9.70
2022-09-12T00:38:16.660Z,9.40
2022-09-12T00:40:44.861Z,10.77
2022-09-12T00:43:15.527Z,10.30
2022-09-12T00:45:43.716Z,10.67
2022-09-12T00:48:19.483Z,10.57
2022-09-12T00:50:49.002Z,12.10
2022-09-12T00:53:17.145Z,12.33
2022-09-12T00:55:49.101Z,12.37
2022-09-12T00:58:20.358Z,13.63
2022-09-12T01:00:48.925Z,12.17
2022-09-12T01:03:18.701Z,14.30
2022-09-12T01:05:53.342Z,14.07
2022-09-12T01:08:22.159Z,13.93
2022-09-12T01:10:50.473Z,13.87
2022-09-12T01:13:18.647Z,13.70
2022-09-12T01:15:46.837Z,14.20
2022-09-12T01:18:19.013Z,12.87
2022-09-12T01:20:52.209Z,13.83
2022-09-12T01:23:38.563Z,12.70
2022-09-12T01:26:17.308Z,14.43
2022-09-12T01:28:53.946Z,13.83
2022-09-12T01:31:26.220Z,15.07
2022-09-12T01:34:05.615Z,13.67
2022-09-12T01:36:36.472Z,14.33
2022-09-12T01:39:06.155Z,14.20
2022-09-12T01:41:39.576Z,13.77
2022-09-12T01:44:12.878Z,14.47
2022-09-12T01:46:45.393Z,14.37
2022-09-12T01:49:16.764Z,14.43
2022-09-12T01:51:49.418Z,15.93
2022-09-12T01:54:21.265Z,14.80
2022-09-12T01:56:50.784Z,14.30
2022-09-12T01:59:20.649Z,14.37
2022-09-12T02:01:53.915Z,14.37
2022-09-12T02:04:24.179Z,14.07
2022-09-12T02:06:55.485Z,14.23
2022-09-12T02:09:25.358Z,15.53
2022-09-12T02:11:55.832Z,15.07
2022-09-12T02:14:25.462Z,14.37
2022-09-12T02:16:57.092Z,14.83
2022-09-12T02:19:26.273Z,14.20
2022-09-12T02:21:55.823Z,14.13
2022-09-12T02:24:25.614Z,14.77
2022-09-12T02:26:56.440Z,13.70
2022-09-12T02:29:24.621Z,14.60
2022-09-12T02:31:55.936Z,14.70
2022-09-12T02:34:30.954Z,13.80
2022-09-12T02:37:04.175Z,14.33
2022-09-12T02:39:32.362Z,14.07
2022-09-12T02:42:01.959Z,14.53
2022-09-12T02:44:31.211Z,14.57
2022-09-12T02:47:01.602Z,14.53
2022-09-12T02:49:31.108Z,13.10
2022-09-12T02:51:59.569Z,13.40
2022-09-12T02:54:27.789Z,13.33
2022-09-12T02:56:55.949Z,13.63
2022-09-12T02:59:24.725Z,13.20
2022-09-12T03:02:09.000Z,13.03
2022-09-12T03:04:48.567Z,12.73
2022-09-12T03:07:23.307Z,13.03
2022-09-12T03:09:58.041Z,12.00
2022-09-12T03:12:30.009Z,12.47
2022-09-12T03:15:04.246Z,12.03
2022-09-12T03:17:40.326Z,12.93
2022-09-12T03:20:12.048Z,12.53
2022-09-12T03:22:47.131Z,12.10
2022-09-12T03:25:20.296Z,12.40
2022-09-12T03:27:52.916Z,12.47
2022-09-12T03:30:21.091Z,12.40
2022-09-12T03:32:50.096Z,12.70
2022-09-12T03:35:22.998Z,12.90
2022-09-12T03:37:52.129Z,12.03
2022-09-12T03:40:20.538Z,12.23
2022-09-12T03:42:48.662Z,13.33
2022-09-12T03:45:17.193Z,12.63
2022-09-12T03:47:45.327Z,12.87
2022-09-12T03:50:13.468Z,12.77
2022-09-12T03:52:42.947Z,11.67
2022-09-12T03:55:11.207Z,12.77
2022-09-12T03:57:39.636Z,11.60
2022-09-12T04:00:09.132Z,11.13
2022-09-12T04:02:37.564Z,10.10
2022-09-12T04:05:05.951Z,10.87
2022-09-12T04:07:34.083Z,10.90
2022-09-12T04:10:04.011Z,11.70
2022-09-12T04:12:32.260Z,10.97
2022-09-12T04:15:00.423Z,10.40
2022-09-12T04:17:28.546Z,11.37
2022-09-12T04:19:56.683Z,9.80
2022-09-12T04:22:24.827Z,10.37
2022-09-12T04:24:53.325Z,11.10
2022-09-12T04:27:22.811Z,10.07
2022-09-12T04:29:50.928Z,10.53
2022-09-12T04:32:20.032Z,10.77
2022-09-12T04:34:48.162Z,10.83
2022-09-12T04:37:16.823Z,10.20
2022-09-12T04:39:45.039Z,10.47
2022-09-12T04:42:13.396Z,9.77
2022-09-12T04:44:42.966Z,10.30
2022-09-12T04:47:11.127Z,9.87
2022-09-12T04:49:39.267Z,9.23
2022-09-12T04:52:08.011Z,9.63
2022-09-12T04:54:36.196Z,9.87
2022-09-12T04:57:04.390Z,10.07
2022-09-12T04:59:33.056Z,10.63
2022-09-12T05:02:02.874Z,11.33
2022-09-12T05:04:31.511Z,10.40
2022-09-12T05:06:59.914Z,9.77
2022-09-12T05:09:29.080Z,10.30
2022-09-12T05:12:04.338Z,10.27
2022-09-12T05:14:33.381Z,10.27
2022-09-12T05:17:02.964Z,10.50
2022-09-12T05:19:31.975Z,10.40
2022-09-12T05:22:00.227Z,9.73
2022-09-12T05:24:28.785Z,10.30
2022-09-12T05:26:56.956Z,10.63
2022-09-12T05:29:25.623Z,10.47
2022-09-12T05:31:53.785Z,9.33
2022-09-12T05:34:23.492Z,9.67
2022-09-12T05:36:51.645Z,9.27
2022-09-12T05:39:19.772Z,8.97
2022-09-12T05:41:48.251Z,9.40
2022-09-12T05:44:16.444Z,8.60
2022-09-12T05:46:45.482Z,8.80
2022-09-12T05:49:14.438Z,8.50
2022-09-12T05:51:44.841Z,8.63
2022-09-12T05:54:14.220Z,8.37
2022-09-12T05:56:43.108Z,7.70
2022-09-12T05:59:13.129Z,7.90
2022-09-12T06:01:41.587Z,7.53
2022-09-12T06:04:10.527Z,6.60
2022-09-12T06:06:41.421Z,6.70
2022-09-12T06:09:11.338Z,6.37
2022-09-12T06:11:41.028Z,6.73
2022-09-12T06:14:09.831Z,6.40
2022-09-12T06:16:38.303Z,6.47
2022-09-12T06:19:07.811Z,6.47
2022-09-12T06:21:36.172Z,6.00
2022-09-12T06:24:04.325Z,5.63
2022-09-12T06:26:33.846Z,5.43
2022-09-12T06:29:02.928Z,5.70
2022-09-12T06:31:32.148Z,5.23
2022-09-12T06:34:02.176Z,4.90
2022-09-12T06:36:31.138Z,5.30
2022-09-12T06:39:00.874Z,5.07
2022-09-12T06:41:31.060Z,5.00
2022-09-12T06:44:00.813Z,4.97
2022-09-12T06:46:29.449Z,5.10
2022-09-12T06:48:57.649Z,4.73
2022-09-12T06:51:26.199Z,5.03
2022-09-12T06:53:56.120Z,4.63
2022-09-12T06:56:25.182Z,4.07
2022-09-12T06:58:53.677Z,4.30
2022-09-12T07:01:23.913Z,3.53
2022-09-12T07:03:52.916Z,3.20
2022-09-12T07:06:21.832Z,3.70
2022-09-12T07:08:50.266Z,3.03
2022-09-12T07:11:18.969Z,3.33
2022-09-12T07:13:47.897Z,2.93
2022-09-12T07:16:19.429Z,2.63
2022-09-12T07:18:53.176Z,3.20
2022-09-12T07:21:21.726Z,2.75
2022-09-12T07:23:51.733Z,3.03
2022-09-12T07:26:19.951Z,2.92
2022-09-12T07:28:52.517Z,2.83
2022-09-12T07:31:20.928Z,2.80
2022-09-12T07:33:54.435Z,3.40
2022-09-12T07:36:25.429Z,3.00
2022-09-12T07:38:57.747Z,2.70
2022-09-12T07:41:26.738Z,2.67
2022-09-12T07:43:55.988Z,3.00
2022-09-12T07:46:24.970Z,3.08
2022-09-12T07:48:53.280Z,2.95
2022-09-12T07:51:21.868Z,3.05
2022-09-12T07:53:51.758Z,3.00
2022-09-12T07:56:21.088Z,3.17
2022-09-12T07:58:49.710Z,2.83
2022-09-12T08:01:18.844Z,3.20
2022-09-12T08:03:48.108Z,3.00
2022-09-12T08:06:16.978Z,3.37
2022-09-12T08:08:45.161Z,3.27
2022-09-12T08:11:15.501Z,2.80
2022-09-12T08:13:44.222Z,2.90
2022-09-12T08:16:13.659Z,3.10
2022-09-12T08:18:42.017Z,2.88
2022-09-12T08:21:12.239Z,2.72
2022-09-12T08:23:40.490Z,2.63
2022-09-12T08:26:08.700Z,2.30
2022-09-12T08:28:40.337Z,2.30
2022-09-12T08:31:09.249Z,2.28
2022-09-12T08:33:37.573Z,2.00
2022-09-12T08:36:06.555Z,1.90
2022-09-12T08:38:34.706Z,2.00
2022-09-12T08:41:05.522Z,1.80
2022-09-12T08:43:40.256Z,1.60
2022-09-12T08:46:13.642Z,1.75
2022-09-12T08:48:42.841Z,1.88
2022-09-12T08:51:12.462Z,1.90
2022-09-12T08:53:41.616Z,1.73
2022-09-12T08:56:11.655Z,1.90
2022-09-12T08:58:41.789Z,1.60
2022-09-12T09:01:14.541Z,1.88
2022-09-12T09:03:56.479Z,1.67
2022-09-12T09:06:33.392Z,1.67
2022-09-12T09:09:06.160Z,2.30
2022-09-12T09:11:39.340Z,2.00
2022-09-12T09:14:34.384Z,1.92
2022-09-12T09:17:04.414Z,1.95
2022-09-12T09:19:34.378Z,2.08
2022-09-12T09:22:04.969Z,1.83
2022-09-12T09:24:35.395Z,2.30
2022-09-12T09:27:11.092Z,2.08
2022-09-12T09:29:54.946Z,1.75
2022-09-12T09:32:28.435Z,1.90
2022-09-12T09:34:56.687Z,2.13
2022-09-12T09:37:30.009Z,2.08
2022-09-12T09:40:02.427Z,1.88
2022-09-12T09:42:34.268Z,1.92
2022-09-12T09:45:04.694Z,1.92
2022-09-12T09:47:34.161Z,2.03
2022-09-12T09:50:02.399Z,2.22
2022-09-12T09:52:32.839Z,2.25
2022-09-12T09:55:01.661Z,2.08
2022-09-12T09:57:43.322Z,2.30
2022-09-12T10:00:30.423Z,1.90
2022-09-12T10:03:12.611Z,2.03
2022-09-12T10:05:46.865Z,2.28
2022-09-12T10:08:22.053Z,1.90
2022-09-12T10:11:00.560Z,2.10
2022-09-12T10:13:32.416Z,2.00
2022-09-12T10:16:01.210Z,2.25
2022-09-12T10:18:37.619Z,1.63
2022-09-12T10:21:15.341Z,1.77
2022-09-12T10:23:43.861Z,1.97
2022-09-12T10:26:13.198Z,1.90
2022-09-12T10:28:42.964Z,1.93
2022-09-12T10:31:12.496Z,1.70
2022-09-12T10:33:43.760Z,1.77
2022-09-12T10:36:12.248Z,1.80
2022-09-12T10:38:40.616Z,1.60
2022-09-12T10:41:10.126Z,1.97
2022-09-12T10:43:39.823Z,1.87
2022-09-12T10:46:30.436Z,1.70
2022-09-12T10:49:13.439Z,1.70
2022-09-12T10:51:43.197Z,1.90
2022-09-12T10:54:13.108Z,1.97
2022-09-12T10:56:44.484Z,2.17
2022-09-12T10:59:20.300Z,1.60
2022-09-12T11:01:50.663Z,1.70
2022-09-12T11:04:34.244Z,1.40
2022-09-12T11:07:23.487Z,1.53
2022-09-12T11:09:56.255Z,1.53
2022-09-12T11:12:29.803Z,1.67
2022-09-12T11:15:02.966Z,1.60
2022-09-12T11:17:38.682Z,1.70
2022-09-12T11:20:15.377Z,1.53
2022-09-12T11:22:52.937Z,1.57
2022-09-12T11:25:29.800Z,1.30
2022-09-12T11:28:05.963Z,1.30
2022-09-12T11:30:39.748Z,1.47
2022-09-12T11:33:21.285Z,1.70
2022-09-12T11:35:55.185Z,1.53
2022-09-12T11:38:29.391Z,1.57
2022-09-12T11:41:02.246Z,1.70
2022-09-12T11:43:35.799Z,1.80
2022-09-12T11:46:08.441Z,1.40
2022-09-12T11:48:41.888Z,1.60
2022-09-12T11:51:18.050Z,1.40
2022-09-12T11:53:46.984Z,1.50
2022-09-12T11:56:18.792Z,1.40
2022-09-12T11:58:50.892Z,1.60
2022-09-12T12:01:21.927Z,1.30
2022-09-12T12:03:52.470Z,2.03
2022-09-12T12:06:23.169Z,1.40
2022-09-12T12:08:51.902Z,1.10
2022-09-12T12:11:29.056Z,1.50
2022-09-12T12:13:58.682Z,1.47
2022-09-12T12:16:28.070Z,1.50
2022-09-12T12:18:57.228Z,1.33
2022-09-12T12:21:37.455Z,1.40
2022-09-12T12:24:13.307Z,1.73
2022-09-12T12:26:59.969Z,1.43
2022-09-12T12:29:43.808Z,1.50
2022-09-12T12:32:25.610Z,1.70
2022-09-12T12:35:02.740Z,1.50
2022-09-12T12:37:51.092Z,1.50
2022-09-12T12:40:27.093Z,1.37
2022-09-12T12:43:07.933Z,1.70
2022-09-12T12:45:50.190Z,1.60
2022-09-12T12:48:20.372Z,1.40
2022-09-12T12:50:48.702Z,1.77
2022-09-12T12:53:20.086Z,1.80
2022-09-12T12:55:50.869Z,1.47
2022-09-12T12:58:29.943Z,1.60
2022-09-12T13:01:05.543Z,1.50
2022-09-12T13:03:34.649Z,1.30
2022-09-12T13:06:04.000Z,1.70
2022-09-12T13:08:33.090Z,1.50
2022-09-12T13:11:02.934Z,1.53
2022-09-12T13:13:35.441Z,1.60
2022-09-12T13:16:03.877Z,1.30
2022-09-12T13:18:40.816Z,1.30
2022-09-12T13:21:10.819Z,1.70
2022-09-12T13:23:38.999Z,1.40
2022-09-12T13:26:11.886Z,1.47
2022-09-12T13:28:41.417Z,1.40
2022-09-12T13:31:13.937Z,1.10
2022-09-12T13:33:43.456Z,1.33
2022-09-12T13:36:36.001Z,1.30
2022-09-12T13:39:09.468Z,1.70
2022-09-12T13:41:53.169Z,1.40
2022-09-12T13:44:23.411Z,1.33
2022-09-12T13:46:52.161Z,1.40
2022-09-12T13:49:22.589Z,1.40
2022-09-12T13:51:56.478Z,1.40
2022-09-12T13:54:24.760Z,1.50
2022-09-12T13:56:52.897Z,1.30
2022-09-12T13:59:21.068Z,1.40
2022-09-12T14:01:50.819Z,1.40
2022-09-12T14:04:37.473Z,1.40
2022-09-12T14:07:11.804Z,1.60
2022-09-12T14:09:41.445Z,1.53
2022-09-12T14:12:18.222Z,1.47
2022-09-12T14:14:49.860Z,1.37
2022-09-12T14:17:23.798Z,1.60
2022-09-12T14:19:52.637Z,1.47
2022-09-12T14:22:20.840Z,1.50
2022-09-12T14:24:50.387Z,1.50
2022-09-12T14:27:19.132Z,1.50
2022-09-12T14:29:48.094Z,1.33
2022-09-12T14:32:22.804Z,1.50
2022-09-12T14:35:06.700Z,1.50
2022-09-12T14:37:35.437Z,2.00
2022-09-12T14:40:05.066Z,1.50
2022-09-12T14:42:34.155Z,1.70
2022-09-12T14:45:03.180Z,1.63
2022-09-12T14:47:37.117Z,1.53
2022-09-12T14:50:08.248Z,1.30
2022-09-12T14:52:40.045Z,1.40
2022-09-12T14:55:21.857Z,1.50
2022-09-12T14:57:50.439Z,1.40
2022-09-12T15:00:21.233Z,1.10
2022-09-12T15:02:51.302Z,1.40
2022-09-12T15:05:29.448Z,1.30
2022-09-12T15:07:59.458Z,1.53
2022-09-12T15:10:30.963Z,1.40
2022-09-12T15:13:06.125Z,1.30
2022-09-12T15:15:34.368Z,1.43
2022-09-12T15:18:06.584Z,1.10
2022-09-12T15:20:35.467Z,1.47
2022-09-12T15:23:03.611Z,1.50
2022-09-12T15:25:32.016Z,1.30
2022-09-12T15:28:00.671Z,1.77
2022-09-12T15:30:28.993Z,1.30
2022-09-12T15:32:59.966Z,1.40
2022-09-12T15:35:30.198Z,1.23
2022-09-12T15:37:58.324Z,1.43
2022-09-12T15:40:26.799Z,1.33
2022-09-12T15:42:54.932Z,1.30
2022-09-12T15:45:24.128Z,1.27
2022-09-12T15:47:52.276Z,1.10
2022-09-12T15:50:20.781Z,1.20
2022-09-12T15:52:50.274Z,1.20
2022-09-12T15:55:19.600Z,1.27
2022-09-12T15:57:47.830Z,1.33
2022-09-12T16:00:17.657Z,1.20
2022-09-12T16:02:46.138Z,1.20
2022-09-12T16:05:15.967Z,1.50
2022-09-12T16:07:44.724Z,1.63
2022-09-12T16:10:17.420Z,1.10
2022-09-12T16:12:46.380Z,1.30
2022-09-12T16:15:15.202Z,1.17
2022-09-12T16:17:43.560Z,1.37
2022-09-12T16:20:11.987Z,1.30
2022-09-12T16:22:40.521Z,1.30
2022-09-12T16:25:09.351Z,1.27
2022-09-12T16:27:39.213Z,1.57
2022-09-12T16:30:08.183Z,1.27
2022-09-12T16:32:36.341Z,1.50
2022-09-12T16:35:04.647Z,1.57
2022-09-12T16:37:34.423Z,2.40
2022-09-12T16:40:02.879Z,1.60
2022-09-12T16:42:31.273Z,1.60
2022-09-12T16:45:00.775Z,1.40
2022-09-12T16:47:32.089Z,1.33
2022-09-12T16:50:00.426Z,1.40
2022-09-12T16:52:28.716Z,1.40
2022-09-12T16:54:57.174Z,1.43
2022-09-12T16:57:25.331Z,1.57
2022-09-12T16:59:53.608Z,1.40
2022-09-12T17:02:23.125Z,1.40
2022-09-12T17:04:52.651Z,1.50
2022-09-12T17:07:21.026Z,1.50
2022-09-12T17:09:49.241Z,1.50
2022-09-12T17:12:17.377Z,1.40
2022-09-12T17:14:45.495Z,1.53
2022-09-12T17:17:13.651Z,1.50
2022-09-12T17:19:43.371Z,1.30
2022-09-12T17:22:11.571Z,1.63
2022-09-12T17:24:40.403Z,1.70
2022-09-12T17:27:08.796Z,1.80
2022-09-12T17:29:37.080Z,1.67
2022-09-12T17:32:05.242Z,1.80
2022-09-12T17:34:33.437Z,2.10
2022-09-12T17:37:02.968Z,3.03
2022-09-12T17:39:31.280Z,3.47
2022-09-12T17:41:59.475Z,3.97
2022-09-12T17:44:29.671Z,4.20
2022-09-12T17:46:57.848Z,4.00
2022-09-12T17:49:26.070Z,3.90
2022-09-12T17:51:56.049Z,4.30
2022-09-12T17:54:25.552Z,4.30
2022-09-12T17:56:55.500Z,3.93
2022-09-12T17:59:24.778Z,3.83
2022-09-12T18:02:10.562Z,2.80
2022-09-12T18:04:38.736Z,2.80
2022-09-12T18:07:06.920Z,2.43
2022-09-12T18:09:37.223Z,2.30
2022-09-12T18:12:05.545Z,2.50
2022-09-12T18:14:33.691Z,2.40
2022-09-12T18:17:01.894Z,2.20
2022-09-12T18:19:30.076Z,2.30
2022-09-12T18:21:58.402Z,1.90
2022-09-12T18:24:26.816Z,2.27
2022-09-12T18:26:57.474Z,2.40
2022-09-12T18:29:27.774Z,2.20
2022-09-12T18:31:55.970Z,2.10
2022-09-12T18:34:24.144Z,2.20
2022-09-12T18:36:54.770Z,2.27
2022-09-12T18:39:27.304Z,2.20
2022-09-12T18:41:57.487Z,2.10
2022-09-12T18:44:25.652Z,2.20
2022-09-12T18:46:53.868Z,2.03
2022-09-12T18:49:22.026Z,2.13
2022-09-12T18:51:50.353Z,2.33
2022-09-12T18:54:18.753Z,2.20
2022-09-12T18:56:47.603Z,2.20
2022-09-12T18:59:17.095Z,2.40
2022-09-12T19:01:45.335Z,1.80
2022-09-12T19:04:14.257Z,2.43
2022-09-12T19:06:43.369Z,1.93
2022-09-12T19:09:12.889Z,2.17
2022-09-12T19:11:42.464Z,2.10
2022-09-12T19:14:10.631Z,2.43
2022-09-12T19:16:40.128Z,2.30
2022-09-12T19:19:08.573Z,2.60
2022-09-12T19:21:37.376Z,2.07
2022-09-12T19:24:06.627Z,2.30
2022-09-12T19:26:35.673Z,1.87
2022-09-12T19:29:03.896Z,1.80
2022-09-12T19:31:32.391Z,1.97
2022-09-12T19:34:02.176Z,1.83
2022-09-12T19:36:47.318Z,2.10
2022-09-12T19:39:16.064Z,2.10
2022-09-12T19:41:44.231Z,2.13
2022-09-12T19:44:12.579Z,1.90
2022-09-12T19:46:40.810Z,1.70
2022-09-12T19:49:11.189Z,2.10
2022-09-12T19:51:39.322Z,1.50
2022-09-12T19:54:07.723Z,2.13
2022-09-12T19:56:35.943Z,1.80
2022-09-12T19:59:04.229Z,1.80
2022-09-12T20:01:33.064Z,1.80
2022-09-12T20:04:01.278Z,1.83
2022-09-12T20:06:30.795Z,1.70
2022-09-12T20:08:59.842Z,1.90
2022-09-12T20:11:28.004Z,1.80
2022-09-12T20:13:56.295Z,1.83
2022-09-12T20:16:25.826Z,2.07
2022-09-12T20:18:55.271Z,1.80
2022-09-12T20:21:25.106Z,1.70
2022-09-12T20:23:54.773Z,1.73
2022-09-12T20:26:24.822Z,1.90
2022-09-12T20:28:53.220Z,1.63
2022-09-12T20:31:21.400Z,1.70
2022-09-12T20:33:51.772Z,1.90
2022-09-12T20:36:21.764Z,1.60
2022-09-12T20:38:50.685Z,1.93
2022-09-12T20:41:20.765Z,1.50
2022-09-12T20:43:51.096Z,1.80
2022-09-12T20:46:21.875Z,1.67
2022-09-12T20:48:50.796Z,1.63
2022-09-12T20:51:19.171Z,1.90
2022-09-12T20:53:47.550Z,2.00
2022-09-12T20:56:15.748Z,1.70
2022-09-12T20:58:45.237Z,1.70
2022-09-12T21:01:13.865Z,1.80
2022-09-12T21:03:42.681Z,1.67
2022-09-12T21:06:12.420Z,1.80
2022-09-12T21:08:40.760Z,1.90
2022-09-12T21:11:08.932Z,1.60
2022-09-12T21:13:37.545Z,1.80
2022-09-12T21:16:07.975Z,1.60
2022-09-12T21:18:36.709Z,1.67
2022-09-12T21:21:05.724Z,1.43
2022-09-12T21:23:34.429Z,1.57
2022-09-12T21:26:03.275Z,1.60
2022-09-12T21:28:31.411Z,1.60
2022-09-12T21:31:00.133Z,1.70
2022-09-12T21:33:29.726Z,2.00
2022-09-12T21:36:02.536Z,1.90
2022-09-12T21:38:31.376Z,1.57
2022-09-12T21:41:08.857Z,1.70
2022-09-12T21:43:37.486Z,1.67
2022-09-12T21:46:06.268Z,1.50
2022-09-12T21:48:36.256Z,1.57
2022-09-12T21:51:04.908Z,1.33
2022-09-12T21:53:33.119Z,1.73
2022-09-12T21:56:04.689Z,1.80
2022-09-12T21:58:33.383Z,1.70
2022-09-12T22:01:01.835Z,1.67
2022-09-12T22:03:30.516Z,1.67
2022-09-12T22:06:00.471Z,1.80
2022-09-12T22:08:28.779Z,1.87
2022-09-12T22:10:59.608Z,2.00
2022-09-12T22:13:27.933Z,2.20
2022-09-12T22:15:56.108Z,2.10
2022-09-12T22:18:24.344Z,1.80
2022-09-12T22:20:59.843Z,1.90
2022-09-12T22:23:46.977Z,2.07
2022-09-12T22:26:15.472Z,1.77
2022-09-12T22:28:43.800Z,1.93
2022-09-12T22:31:12.423Z,1.73
2022-09-12T22:33:41.084Z,1.80
2022-09-12T22:36:09.718Z,1.80
2022-09-12T22:38:39.196Z,1.70
2022-09-12T22:41:08.096Z,2.10
2022-09-12T22:43:36.587Z,1.80
2022-09-12T22:46:07.243Z,1.70
2022-09-12T22:48:35.440Z,1.87
2022-09-12T22:51:03.598Z,1.60
2022-09-12T22:53:31.763Z,1.90
2022-09-12T22:56:01.439Z,1.83
2022-09-12T22:58:29.592Z,1.70
2022-09-12T23:00:57.733Z,2.00
2022-09-12T23:03:26.032Z,2.00
2022-09-12T23:05:54.211Z,2.00
2022-09-12T23:08:22.372Z,2.00
2022-09-12T23:10:50.688Z,1.93
2022-09-12T23:13:20.173Z,2.17
2022-09-12T23:15:49.406Z,2.10
2022-09-12T23:18:17.944Z,1.70
2022-09-12T23:20:46.180Z,2.23
2022-09-12T23:23:14.317Z,2.20
2022-09-12T23:25:42.472Z,2.00
2022-09-12T23:28:14.605Z,1.70
2022-09-12T23:30:44.120Z,2.07
2022-09-12T23:33:12.247Z,1.80
2022-09-12T23:35:40.404Z,1.80
2022-09-12T23:38:12.590Z,2.07
2022-09-12T23:40:42.601Z,2.00
2022-09-12T23:43:10.727Z,1.87
2022-09-12T23:45:38.909Z,1.97
2022-09-12T23:48:08.824Z,1.93
2022-09-12T23:50:36.986Z,2.17
2022-09-12T23:53:06.392Z,2.10
2022-09-12T23:55:34.671Z,1.77
2022-09-12T23:58:03.052Z,1.90
